createdAt,value
2023-08-09T00:01:01.872Z,78.300000
2023-08-09T00:05:18.383Z,77.800000
2023-08-09T00:10:18.435Z,77.300000
2023-08-09T00:15:24.623Z,76.900000
2023-08-09T00:20:24.573Z,76.700000
2023-08-09T00:25:24.594Z,76.600000
2023-08-09T00:31:02.009Z,76.300000
2023-08-09T00:35:24.566Z,76.100000
2023-08-09T00:40:18.386Z,76.000000
2023-08-09T00:45:18.394Z,75.800000
2023-08-09T00:50:18.388Z,75.700000
2023-08-09T00:55:18.390Z,75.600000
2023-08-09T01:00:18.358Z,75.500000
2023-08-09T01:06:01.890Z,75.500000
2023-08-09T01:11:01.832Z,75.400000
2023-08-09T01:15:16.559Z,75.300000
2023-08-09T01:20:18.459Z,75.300000
2023-08-09T01:26:01.873Z,75.200000
2023-08-09T01:31:01.940Z,75.200000
2023-08-09T01:35:16.579Z,75.200000
2023-08-09T01:40:16.596Z,75.200000
2023-08-09T01:45:18.389Z,75.200000
2023-08-09T01:50:18.391Z,75.100000
2023-08-09T01:55:16.614Z,75.100000
2023-08-09T02:00:18.455Z,75.000000
2023-08-09T02:06:01.952Z,75.000000
2023-08-09T02:10:18.476Z,74.900000
2023-08-09T02:16:01.862Z,74.900000
2023-08-09T02:20:18.424Z,74.800000
2023-08-09T02:26:01.946Z,74.800000
2023-08-09T02:31:01.934Z,74.700000
2023-08-09T02:36:01.862Z,74.600000
2023-08-09T02:40:16.630Z,74.500000
2023-08-09T02:46:01.890Z,74.500000
2023-08-09T02:51:01.889Z,74.400000
2023-08-09T02:56:01.913Z,74.300000
2023-08-09T03:01:01.921Z,74.200000
2023-08-09T03:06:01.857Z,74.200000
2023-08-09T03:11:01.900Z,74.000000
2023-08-09T03:15:16.589Z,74.000000
2023-08-09T03:21:01.988Z,73.900000
2023-08-09T03:25:16.606Z,73.800000
2023-08-09T03:30:16.685Z,73.800000
2023-08-09T03:35:16.729Z,73.700000
2023-08-09T03:40:16.608Z,73.600000
2023-08-09T03:45:18.482Z,73.500000
2023-08-09T03:50:18.401Z,73.400000
2023-08-09T03:55:16.621Z,73.400000
2023-08-09T04:00:17.808Z,73.300000
2023-08-09T04:05:17.694Z,73.200000
2023-08-09T04:10:17.756Z,73.200000
2023-08-09T04:15:23.981Z,73.100000
2023-08-09T04:20:17.683Z,73.000000
2023-08-09T04:26:01.167Z,73.000000
2023-08-09T04:30:17.743Z,73.000000
2023-08-09T04:35:54.939Z,73.000000
2023-08-09T04:41:01.208Z,72.900000
2023-08-09T04:45:17.709Z,72.900000
2023-08-09T04:51:01.193Z,72.800000
2023-08-09T04:56:01.227Z,72.700000
2023-08-09T05:00:15.920Z,72.700000
2023-08-09T05:05:15.929Z,72.600000
2023-08-09T05:10:15.983Z,72.600000
2023-08-09T05:15:16.024Z,72.600000
2023-08-09T05:20:15.954Z,72.600000
2023-08-09T05:25:15.993Z,72.500000
2023-08-09T05:30:15.929Z,72.600000
2023-08-09T05:35:16.011Z,72.500000
2023-08-09T05:40:15.950Z,72.500000
2023-08-09T05:45:15.942Z,72.500000
2023-08-09T05:50:15.930Z,72.500000
2023-08-09T05:55:15.901Z,72.400000
2023-08-09T06:00:15.934Z,72.400000
2023-08-09T06:05:15.900Z,72.400000
2023-08-09T06:11:22.827Z,72.400000
2023-08-09T06:15:17.760Z,72.300000
2023-08-09T06:20:17.763Z,72.300000
2023-08-09T06:25:17.733Z,72.300000
2023-08-09T06:30:17.757Z,72.300000
2023-08-09T06:35:17.800Z,72.200000
2023-08-09T06:40:17.757Z,72.200000
2023-08-09T06:45:24.006Z,72.200000
2023-08-09T06:50:17.777Z,72.100000
2023-08-09T06:56:01.203Z,72.000000
2023-08-09T07:01:01.305Z,71.900000
2023-08-09T07:06:01.238Z,71.900000
2023-08-09T07:11:01.307Z,71.900000
2023-08-09T07:16:01.238Z,71.900000
2023-08-09T07:21:01.207Z,71.800000
2023-08-09T07:26:01.192Z,71.900000
2023-08-09T07:30:17.841Z,71.800000
2023-08-09T07:35:17.825Z,71.800000
2023-08-09T07:40:17.775Z,71.800000
2023-08-09T07:45:17.732Z,71.800000
2023-08-09T07:50:17.900Z,71.800000
2023-08-09T07:55:15.896Z,71.700000
2023-08-09T08:00:17.836Z,71.600000
2023-08-09T08:05:17.847Z,71.600000
2023-08-09T08:10:17.845Z,71.500000
2023-08-09T08:15:17.821Z,71.500000
2023-08-09T08:20:17.791Z,71.400000
2023-08-09T08:25:17.840Z,71.300000
2023-08-09T08:31:01.384Z,71.300000
2023-08-09T08:36:21.650Z,71.300000
2023-08-09T08:41:01.212Z,71.300000
2023-08-09T08:46:01.291Z,71.300000
2023-08-09T08:51:01.514Z,71.300000
2023-08-09T08:56:01.273Z,71.300000
2023-08-09T09:00:28.235Z,71.300000
2023-08-09T09:06:01.256Z,71.300000
2023-08-09T09:10:24.041Z,71.300000
2023-08-09T09:15:16.025Z,71.200000
2023-08-09T09:20:17.884Z,71.200000
2023-08-09T09:25:24.644Z,71.200000
2023-08-09T09:31:01.316Z,71.200000
2023-08-09T09:36:01.320Z,71.200000
2023-08-09T09:40:15.996Z,71.200000
2023-08-09T09:45:24.304Z,71.200000
2023-08-09T09:50:16.030Z,71.200000
2023-08-09T09:55:16.047Z,71.300000
2023-08-09T10:01:01.357Z,71.200000
2023-08-09T10:06:01.324Z,71.100000
2023-08-09T10:10:17.848Z,71.100000
2023-08-09T10:15:16.084Z,71.000000
2023-08-09T10:20:16.031Z,71.000000
2023-08-09T10:26:01.350Z,70.900000
2023-08-09T10:30:17.818Z,70.900000
2023-08-09T10:35:17.863Z,70.900000
2023-08-09T10:41:01.317Z,71.000000
2023-08-09T10:45:16.111Z,71.000000
2023-08-09T10:50:17.918Z,71.100000
2023-08-09T10:55:17.917Z,71.100000
2023-08-09T11:01:01.410Z,71.300000
2023-08-09T11:05:17.876Z,71.400000
2023-08-09T11:10:17.937Z,71.500000
2023-08-09T11:15:15.880Z,71.700000
2023-08-09T11:20:17.908Z,71.900000
2023-08-09T11:25:17.934Z,72.100000
2023-08-09T11:30:17.862Z,72.300000
2023-08-09T11:36:01.384Z,72.500000
2023-08-09T11:40:17.964Z,72.700000
2023-08-09T11:45:24.183Z,73.100000
2023-08-09T11:50:17.862Z,73.300000
2023-08-09T11:56:01.423Z,73.500000
2023-08-09T12:00:17.929Z,73.700000
2023-08-09T12:05:16.433Z,73.900000
2023-08-09T12:11:01.367Z,74.000000
2023-08-09T12:15:17.916Z,74.200000
2023-08-09T12:20:17.931Z,74.400000
2023-08-09T12:25:24.197Z,74.600000
2023-08-09T12:30:17.901Z,74.800000
2023-08-09T12:35:17.903Z,74.900000
2023-08-09T12:40:17.916Z,75.000000
2023-08-09T12:45:17.916Z,75.000000
2023-08-09T12:50:18.097Z,75.100000
2023-08-09T12:55:16.110Z,75.200000
2023-08-09T13:01:01.430Z,75.300000
2023-08-09T13:05:18.013Z,75.500000
2023-08-09T13:10:16.216Z,75.700000
2023-08-09T13:16:03.326Z,75.700000
2023-08-09T13:20:17.963Z,76.000000
2023-08-09T13:26:01.436Z,76.200000
2023-08-09T13:30:16.147Z,76.200000
2023-08-09T13:36:01.462Z,76.300000
2023-08-09T13:41:01.433Z,76.500000
2023-08-09T13:45:15.966Z,76.600000
2023-08-09T13:50:17.981Z,76.800000
2023-08-09T13:56:01.460Z,77.100000
2023-08-09T14:00:16.159Z,77.300000
2023-08-09T14:06:01.443Z,77.600000
2023-08-09T14:11:01.391Z,77.900000
2023-08-09T14:15:24.179Z,78.200000
2023-08-09T14:20:18.006Z,78.400000
2023-08-09T14:25:16.153Z,78.500000
2023-08-09T14:30:17.947Z,78.500000
2023-08-09T14:35:18.036Z,78.500000
2023-08-09T14:40:16.161Z,78.300000
2023-08-09T14:46:01.474Z,78.100000
2023-08-09T14:50:18.036Z,77.900000
2023-08-09T14:55:17.978Z,78.000000
2023-08-09T15:01:01.588Z,78.000000
2023-08-09T15:05:16.155Z,77.900000
2023-08-09T15:10:18.010Z,78.300000
2023-08-09T15:16:01.470Z,78.600000
2023-08-09T15:21:01.458Z,78.900000
2023-08-09T15:26:01.424Z,79.100000
2023-08-09T15:30:17.961Z,79.300000
2023-08-09T15:36:01.520Z,79.400000
2023-08-09T15:40:16.183Z,79.600000
2023-08-09T15:46:01.504Z,79.800000
2023-08-09T15:50:17.317Z,79.900000
2023-08-09T15:55:16.226Z,80.100000
2023-08-09T16:00:18.019Z,80.200000
2023-08-09T16:05:18.045Z,80.700000
2023-08-09T16:11:01.510Z,81.200000
2023-08-09T16:15:18.584Z,81.600000
2023-08-09T16:20:18.102Z,81.600000
2023-08-09T16:26:01.493Z,81.400000
2023-08-09T16:30:18.083Z,81.500000
2023-08-09T16:35:16.241Z,81.800000
2023-08-09T16:41:01.563Z,82.100000
2023-08-09T16:46:01.504Z,82.200000
2023-08-09T16:50:16.232Z,82.500000
2023-08-09T16:56:01.469Z,82.700000
2023-08-09T17:00:18.026Z,82.400000
2023-08-09T17:05:16.216Z,82.100000
2023-08-09T17:11:01.487Z,81.900000
2023-08-09T17:15:18.025Z,81.900000
2023-08-09T17:20:16.231Z,82.100000
2023-08-09T17:26:01.544Z,82.300000
2023-08-09T17:30:16.237Z,82.600000
2023-08-09T17:36:01.583Z,82.800000
2023-08-09T17:41:01.532Z,82.900000
2023-08-09T17:45:18.005Z,82.700000
2023-08-09T17:50:18.109Z,82.100000
2023-08-09T17:55:18.018Z,82.000000
2023-08-09T18:00:16.229Z,81.700000
2023-08-09T18:05:18.078Z,81.500000
2023-08-09T18:10:18.036Z,81.700000
2023-08-09T18:15:18.071Z,81.900000
2023-08-09T18:21:01.545Z,82.100000
2023-08-09T18:25:16.223Z,82.400000
2023-08-09T18:30:18.059Z,82.700000
2023-08-09T18:35:18.882Z,82.800000
2023-08-09T18:40:17.008Z,82.900000
2023-08-09T18:45:24.452Z,82.900000
2023-08-09T18:50:18.050Z,83.000000
2023-08-09T18:55:16.280Z,83.000000
2023-08-09T19:01:01.605Z,82.900000
2023-08-09T19:05:24.992Z,82.800000
2023-08-09T19:10:18.084Z,82.800000
2023-08-09T19:15:18.064Z,82.900000
2023-08-09T19:20:16.251Z,83.000000
2023-08-09T19:25:18.104Z,83.400000
2023-08-09T19:30:18.105Z,83.400000
2023-08-09T19:35:18.062Z,83.300000
2023-08-09T19:40:18.040Z,83.100000
2023-08-09T19:46:01.721Z,82.900000
2023-08-09T19:50:16.244Z,82.800000
2023-08-09T19:56:01.533Z,82.700000
2023-08-09T20:00:18.064Z,82.500000
2023-08-09T20:05:16.333Z,82.700000
2023-08-09T20:11:01.556Z,83.000000
2023-08-09T20:15:18.120Z,83.400000
2023-08-09T20:21:01.588Z,83.600000
2023-08-09T20:25:18.036Z,83.700000
2023-08-09T20:30:16.305Z,83.700000
2023-08-09T20:35:18.125Z,83.800000
2023-08-09T20:41:01.607Z,83.800000
2023-08-09T20:45:18.521Z,83.900000
2023-08-09T20:50:18.204Z,83.700000
2023-08-09T20:55:16.297Z,83.700000
2023-08-09T21:00:16.350Z,83.600000
2023-08-09T21:05:16.322Z,83.500000
2023-08-09T21:10:18.130Z,83.400000
2023-08-09T21:15:18.126Z,83.400000
2023-08-09T21:20:18.148Z,83.300000
2023-08-09T21:30:16.300Z,83.200000
2023-08-09T21:35:18.152Z,83.100000
2023-08-09T21:40:18.082Z,83.000000
2023-08-09T21:45:16.290Z,83.000000
2023-08-09T21:50:16.313Z,82.800000
2023-08-09T21:56:01.616Z,82.800000
2023-08-09T22:00:18.092Z,82.800000
2023-08-09T22:05:16.327Z,82.800000
2023-08-09T22:11:01.611Z,82.700000
2023-08-09T22:15:16.250Z,82.700000
2023-08-09T22:20:55.455Z,82.600000
2023-08-09T22:25:16.375Z,82.600000
2023-08-09T22:30:18.163Z,82.500000
2023-08-09T22:36:01.595Z,82.500000
2023-08-09T22:41:01.649Z,82.400000
2023-08-09T22:45:18.095Z,82.300000
2023-08-09T22:50:18.221Z,82.200000
2023-08-09T22:56:01.668Z,82.100000
2023-08-09T23:00:18.113Z,82.100000
2023-08-09T23:06:01.658Z,82.000000
2023-08-09T23:10:24.390Z,81.900000
2023-08-09T23:15:18.154Z,81.800000
2023-08-09T23:20:16.341Z,81.600000
2023-08-09T23:25:18.190Z,81.500000
2023-08-09T23:30:16.374Z,81.400000
2023-08-09T23:35:16.295Z,81.300000
2023-08-09T23:40:18.220Z,81.100000
2023-08-09T23:45:18.199Z,81.000000
2023-08-09T23:50:18.190Z,80.900000
2023-08-09T23:55:18.174Z,80.800000
